Dades meteomassalio
Diari Summary for Juny 20, 2017 Units:  Metric    English   Both
« Previous Day
Next Day »
Diari Semanal Mensual Anual Personalitzat
  Maxima: Minima: Mijana:
Temperatura: -17.8 °C -6.2 °C -2.3 °C
Rosada: -17.8 °C -11.2 °C -9.1 °C
Humitat: Humidity % 32 % 49 %
Velocitat del vent: 0 km/h 0 km/h 9.5 km/h
Racha vent: 0 km/h - -
Vent:- - SSE
Pressio: 0 hPa 34327.3 hPa -
Pluja: 0 mm    
Historical Graphs
 
 
Tabular Data for Juny 20, 2017
Time Temperature Dew Point Pressure Wind Wind Speed Wind Gust Humidity Rainfall Rate (Hourly) solar Conditions
-17.8 °C -17.8 °C 0 hPa Calm     Humidity % 0 mm SolarRadiationWatts/m^2 W/m2 Conditions
00:00 -3.1 °C -11.1 °C 34452.6 hPa Calm     41 % 0 mm 0.0 W/m2 CLR
00:05 -3 °C -11 °C 34442.4 hPa Calm     41 % 0 mm 0.0 W/m2 CLR
00:10 -3 °C -11 °C 34442.4 hPa Calm     41 % 0 mm 0.0 W/m2 CLR
00:15 -3.1 °C -11.1 °C 34442.4 hPa Calm     41 % 0 mm 0.0 W/m2 CLR
00:20 -3.2 °C -10.9 °C 34442.4 hPa Calm     42 % 0 mm 0.0 W/m2 CLR
00:25 -3.2 °C -11 °C 34442.4 hPa Calm     42 % 0 mm 0.0 W/m2 CLR
00:30 -3.3 °C -11 °C 34442.4 hPa Calm     42 % 0 mm 0.0 W/m2 CLR
00:35 -3.3 °C -11.1 °C 34442.4 hPa Calm     42 % 0 mm 0.0 W/m2 CLR
00:40 -3.4 °C -11.1 °C 34442.4 hPa Calm     42 % 0 mm 0.0 W/m2 CLR
00:45 -3.3 °C -11.2 °C 34442.4 hPa Calm     41 % 0 mm 0.0 W/m2 CLR
00:50 -3.3 °C -11.2 °C 34442.4 hPa Calm     41 % 0 mm 0.0 W/m2 CLR
00:55 -3.2 °C -11.2 °C 34452.6 hPa Calm     41 % 0 mm 0.0 W/m2 CLR
01:00 -3.3 °C -11.2 °C 34442.4 hPa Calm     41 % 0 mm 0.0 W/m2 CLR
01:05 -3.4 °C -11.2 °C 34452.6 hPa Calm     42 % 0 mm 0.0 W/m2 CLR
01:10 -3.4 °C -11.2 °C 34452.6 hPa Calm     42 % 0 mm 0.0 W/m2 CLR
01:15 -3.4 °C -11.2 °C 34442.4 hPa Calm     42 % 0 mm 0.0 W/m2 CLR
01:20 -3.4 °C -11.2 °C 34442.4 hPa Calm     42 % 0 mm 0.0 W/m2 CLR
01:25 -3.4 °C -11.2 °C 34452.6 hPa Calm     42 % 0 mm 0.0 W/m2 CLR
01:30 -3.6 °C -11.1 °C 34442.4 hPa Calm     43 % 0 mm 0.0 W/m2 CLR
01:35 -3.6 °C -11.1 °C 34442.4 hPa Calm     43 % 0 mm 0.0 W/m2 CLR
01:40 -3.6 °C -11.1 °C 34442.4 hPa Calm     43 % 0 mm 0.0 W/m2 CLR
01:41 -3.6 °C -11.1 °C 34442.4 hPa Calm     43 % 0 mm 0.0 W/m2 CLR
01:46 -3.7 °C -10.8 °C 34442.4 hPa Calm     45 % 0 mm 0.0 W/m2 CLR
01:51 -3.9 °C -11.1 °C 34442.4 hPa Calm     45 % 0 mm 0.0 W/m2 CLR
01:56 -4.1 °C -10.9 °C 34442.4 hPa Calm     46 % 0 mm 0.0 W/m2 CLR
02:01 -4.1 °C -11.2 °C 34442.4 hPa Calm     45 % 0 mm 0.0 W/m2 CLR
02:06 -4.1 °C -10.8 °C 34442.4 hPa Calm     47 % 0 mm 0.0 W/m2 CLR
02:07 -4.1 °C -11 °C 34442.4 hPa Calm     46 % 0 mm 0.0 W/m2 CLR
02:12 -4.1 °C -10.8 °C 34442.4 hPa Calm     47 % 0 mm 0.0 W/m2 CLR
02:17 -4.2 °C -10.9 °C 34442.4 hPa Calm     47 % 0 mm 0.0 W/m2 CLR
02:22 -4.2 °C -10.9 °C 34442.4 hPa Calm     47 % 0 mm 0.0 W/m2 CLR
02:27 -4.1 °C -10.8 °C 34428.8 hPa Calm     47 % 0 mm 0.0 W/m2 CLR
02:32 -4.2 °C -11.1 °C 34428.8 hPa Calm     46 % 0 mm 0.0 W/m2 CLR
02:37 -4.2 °C -11.1 °C 34428.8 hPa Calm     46 % 0 mm 0.0 W/m2 CLR
02:42 -4.3 °C -11.2 °C 34428.8 hPa Calm     46 % 0 mm 0.0 W/m2 CLR
02:47 -4.2 °C -11.2 °C 34442.4 hPa Calm     45 % 0 mm 0.0 W/m2 CLR
02:52 -4 °C -11.1 °C 34442.4 hPa Calm     45 % 0 mm 0.0 W/m2 CLR
02:57 -3.7 °C -10.4 °C 34442.4 hPa WNW 23.8 km/h 23.8 km/h 47 % 0 mm 0.0 W/m2 CLR
03:02 -3.3 °C -10.1 °C 34442.4 hPa West 12.9 km/h 12.9 km/h 47 % 0 mm 0.0 W/m2 CLR
03:07 -3.2 °C -9.3 °C 34442.4 hPa West 41.7 km/h 41.7 km/h 51 % 0 mm 0.0 W/m2 CLR
03:12 -3.3 °C -9.2 °C 34442.4 hPa WNW 20.9 km/h 20.9 km/h 52 % 0 mm 0.0 W/m2 CLR
03:17 -3.4 °C -9.1 °C 34442.4 hPa West 29.8 km/h 29.8 km/h 53 % 0 mm 0.0 W/m2 CLR
03:22 -3.5 °C -9.1 °C 34442.4 hPa West 23.8 km/h 23.8 km/h 54 % 0 mm 0.0 W/m2 CLR
03:27 -3.6 °C -9.1 °C 34442.4 hPa West 26.9 km/h 26.9 km/h 54 % 0 mm 0.0 W/m2 CLR
03:32 -3.7 °C -9.1 °C 34442.4 hPa West 29.8 km/h 29.8 km/h 55 % 0 mm 0.0 W/m2 CLR
03:37 -3.7 °C -8.9 °C 34442.4 hPa West 26.9 km/h 26.9 km/h 56 % 0 mm 0.0 W/m2 CLR
03:42 -3.8 °C -8.9 °C 34442.4 hPa West 25.9 km/h 25.9 km/h 57 % 0 mm 0.0 W/m2 CLR
03:47 -3.9 °C -8.8 °C 34442.4 hPa WNW 26.9 km/h 26.9 km/h 58 % 0 mm 0.0 W/m2 CLR
03:52 -4.1 °C -8.8 °C 34442.4 hPa West 20.9 km/h 20.9 km/h 59 % 0 mm 0.0 W/m2 CLR
03:57 -4.1 °C -8.8 °C 34442.4 hPa WNW 29.8 km/h 29.8 km/h 59 % 0 mm 0.0 W/m2 CLR
04:02 -4.2 °C -8.8 °C 34442.4 hPa West 23.8 km/h 23.8 km/h 60 % 0 mm 0.0 W/m2 CLR
04:07 -4.3 °C -8.7 °C 34442.4 hPa WNW 23.8 km/h 23.8 km/h 61 % 0 mm 0.0 W/m2 CLR
04:12 -4.3 °C -8.8 °C 34442.4 hPa West 29.8 km/h 29.8 km/h 61 % 0 mm 0.0 W/m2 CLR
04:17 -4.4 °C -8.7 °C 34442.4 hPa West 20.9 km/h 20.9 km/h 62 % 0 mm 0.0 W/m2 CLR
04:22 -4.4 °C -8.7 °C 34442.4 hPa WSW 7.7 km/h 7.7 km/h 62 % 0 mm 0.0 W/m2 CLR
04:27 -4.5 °C -8.7 °C 34428.8 hPa Calm     63 % 0 mm 0.0 W/m2 CLR
04:32 -4.6 °C -8.6 °C 34428.8 hPa West 15 km/h 15 km/h 64 % 0 mm 0.0 W/m2 CLR
04:37 -4.6 °C -8.6 °C 34428.8 hPa Calm     64 % 0 mm 0.0 W/m2 CLR
04:42 -4.7 °C -8.5 °C 34428.8 hPa Calm     65 % 0 mm 0.0 W/m2 CLR
04:47 -4.7 °C -8.6 °C 34428.8 hPa Calm     65 % 0 mm 0.0 W/m2 CLR
04:52 -4.8 °C -8.7 °C 34428.8 hPa Calm     65 % 0 mm 0.0 W/m2 CLR
04:57 -4.8 °C -8.6 °C 34428.8 hPa Calm     66 % 0 mm 0.0 W/m2 CLR
05:02 -4.9 °C -8.7 °C 34428.8 hPa Calm     66 % 0 mm 0.0 W/m2 CLR
05:07 -4.9 °C -8.7 °C 34428.8 hPa Calm     66 % 0 mm 0.0 W/m2 CLR
05:12 -5 °C -8.7 °C 34428.8 hPa Calm     66 % 0 mm 0.0 W/m2 CLR
05:17 -5.1 °C -8.7 °C 34428.8 hPa Calm     66 % 0 mm 0.0 W/m2 CLR
05:22 -5.1 °C -8.7 °C 34428.8 hPa Calm     67 % 0 mm 0.0 W/m2 CLR
05:27 -5.1 °C -8.7 °C 34418.7 hPa WSW 9 km/h 9 km/h 67 % 0 mm 0.0 W/m2 CLR
05:32 -5.2 °C -8.7 °C 34418.7 hPa Calm     68 % 0 mm 0.0 W/m2 CLR
05:37 -5.2 °C -8.5 °C 34418.7 hPa Calm     69 % 0 mm 0.0 W/m2 CLR
05:42 -5.2 °C -8.6 °C 34418.7 hPa Calm     69 % 0 mm 0.0 W/m2 CLR
05:47 -5.3 °C -8.6 °C 34418.7 hPa Calm     69 % 0 mm 0.0 W/m2 CLR
05:52 -5.4 °C -8.7 °C 34418.7 hPa Calm     69 % 0 mm 0.0 W/m2 CLR
05:57 -5.4 °C -8.6 °C 34418.7 hPa Calm     70 % 0 mm 0.0 W/m2 CLR
06:02 -5.5 °C -8.7 °C 34418.7 hPa Calm     70 % 0 mm 0.0 W/m2 CLR
06:07 -5.6 °C -8.8 °C 34418.7 hPa Calm     70 % 0 mm 0.0 W/m2 CLR
06:12 -5.7 °C -8.7 °C 34418.7 hPa Calm     71 % 0 mm 0.0 W/m2 CLR
06:17 -5.7 °C -8.8 °C 34405.1 hPa Calm     71 % 0 mm 0.0 W/m2 OVC
06:22 -5.8 °C -8.8 °C 34405.1 hPa Calm     71 % 0 mm 0.0 W/m2 OVC
06:27 -5.8 °C -8.8 °C 34418.7 hPa Calm     72 % 0 mm 0.0 W/m2 OVC
06:32 -5.9 °C -8.8 °C 34418.7 hPa Calm     72 % 0 mm 5.0 W/m2 OVC
06:33 -5.9 °C -8.8 °C 34418.7 hPa Calm     72 % 0 mm 5.0 W/m2 OVC
06:38 -5.9 °C -8.9 °C 34418.7 hPa Calm     72 % 0 mm 7.0 W/m2 BKN
06:43 -6.1 °C -8.8 °C 34418.7 hPa Calm     73 % 0 mm 11.0 W/m2 BKN
06:48 -6.1 °C -8.9 °C 34418.7 hPa Calm     73 % 0 mm 16.0 W/m2 BKN
06:53 -6.2 °C -8.8 °C 34418.7 hPa Calm     74 % 0 mm 19.0 W/m2 BKN
06:58 -6.2 °C -8.7 °C 34418.7 hPa Calm     75 % 0 mm 23.0 W/m2 BKN
07:03 -6.2 °C -8.8 °C 34418.7 hPa Calm     74 % 0 mm 26.0 W/m2 BKN
07:08 -6.2 °C -8.8 °C 34418.7 hPa Calm     74 % 0 mm 35.0 W/m2 BKN
07:13 -6.2 °C -8.7 °C 34418.7 hPa Calm     75 % 0 mm 44.0 W/m2 BKN
07:18 -6.2 °C -8.7 °C 34418.7 hPa Calm     75 % 0 mm 53.0 W/m2 SCT
07:23 -6.1 °C -8.8 °C 34428.8 hPa Calm     74 % 0 mm 63.0 W/m2 SCT
07:28 -6 °C -8.7 °C 34428.8 hPa Calm     74 % 0 mm 74.0 W/m2 SCT
07:33 -5.9 °C -8.8 °C 34428.8 hPa Calm     73 % 0 mm 86.0 W/m2 FEW
07:39 -5.8 °C -8.5 °C 34428.8 hPa Calm     74 % 0 mm 98.0 W/m2 FEW
07:44 -5.7 °C -8.5 °C 34428.8 hPa Calm     73 % 0 mm 111.0 W/m2 CLR
07:49 -5.6 °C -8.5 °C 34428.8 hPa Calm     72 % 0 mm 125.0 W/m2 CLR
07:54 -5.4 °C -8.4 °C 34428.8 hPa Calm     71 % 0 mm 142.0 W/m2 CLR
07:59 -5.2 °C -8.4 °C 34428.8 hPa Calm     70 % 0 mm 158.0 W/m2 CLR
08:04 -5.1 °C -8.6 °C 34428.8 hPa Calm     68 % 0 mm 172.0 W/m2 CLR
08:09 -5 °C -8.4 °C 34428.8 hPa Calm     68 % 0 mm 188.0 W/m2 CLR
08:14 -4.9 °C -8.6 °C 34428.8 hPa Calm     66 % 0 mm 204.0 W/m2 CLR
08:19 -4.7 °C -8.6 °C 34428.8 hPa Calm     65 % 0 mm 220.0 W/m2 CLR
08:24 -4.6 °C -8.6 °C 34428.8 hPa Calm     64 % 0 mm 234.0 W/m2 CLR
08:29 -4.4 °C -8.4 °C 34428.8 hPa Calm     64 % 0 mm 248.0 W/m2 CLR
08:30 -4.4 °C -8.6 °C 34428.8 hPa Calm     63 % 0 mm 251.0 W/m2 CLR
08:35 -4.3 °C -8.6 °C 34428.8 hPa Calm     62 % 0 mm 269.0 W/m2 CLR
08:40 -4.2 °C -8.5 °C 34428.8 hPa Calm     62 % 0 mm 281.0 W/m2 CLR
08:45 -4.1 °C -8.5 °C 34428.8 hPa Calm     61 % 0 mm 292.0 W/m2 CLR
08:50 -3.8 °C -8.6 °C 34428.8 hPa Calm     59 % 0 mm 308.0 W/m2 CLR
08:55 -3.6 °C -8.6 °C 34428.8 hPa Calm     58 % 0 mm 322.0 W/m2 CLR
09:00 -3.5 °C -8.6 °C 34428.8 hPa Calm     57 % 0 mm 338.0 W/m2 CLR
09:05 -3.4 °C -8.8 °C 34428.8 hPa Calm     55 % 0 mm 357.0 W/m2 CLR
09:10 -3.3 °C -8.7 °C 34428.8 hPa Calm     55 % 0 mm 369.0 W/m2 CLR
09:15 -3.1 °C -8.7 °C 34428.8 hPa Calm     54 % 0 mm 385.0 W/m2 CLR
09:20 -2.9 °C -8.5 °C 34428.8 hPa Calm     54 % 0 mm 403.0 W/m2 CLR
09:25 -2.8 °C -8.8 °C 34428.8 hPa Calm     52 % 0 mm 417.0 W/m2 CLR
09:30 -2.7 °C -8.8 °C 34428.8 hPa Calm     51 % 0 mm 434.0 W/m2 CLR
09:35 -2.7 °C -9.3 °C 34428.8 hPa Calm     48 % 0 mm 443.0 W/m2 CLR
09:40 -2.7 °C -8.9 °C 34428.8 hPa Calm     50 % 0 mm 468.0 W/m2 CLR
09:45 -2.6 °C -9.3 °C 34428.8 hPa Calm     48 % 0 mm 475.0 W/m2 CLR
09:50 -2.5 °C -9 °C 34428.8 hPa Calm     49 % 0 mm 483.0 W/m2 CLR
09:55 -2.3 °C -8.4 °C 34428.8 hPa Calm     51 % 0 mm 483.0 W/m2 CLR
10:00 -2.2 °C -8.7 °C 34428.8 hPa Calm     49 % 0 mm 513.0 W/m2 CLR
10:05 -2.1 °C -8.3 °C 34428.8 hPa ENE 9 km/h 9 km/h 51 % 0 mm 527.0 W/m2 CLR
10:10 -2.2 °C -9.1 °C 34428.8 hPa Calm     47 % 0 mm 545.0 W/m2 CLR
10:15 -2.1 °C -8.6 °C 34428.8 hPa Calm     49 % 0 mm 555.0 W/m2 CLR
10:20 -2 °C -8.4 °C 34428.8 hPa ENE 11.9 km/h 11.9 km/h 50 % 0 mm 573.0 W/m2 CLR
10:25 -2 °C -8.7 °C 34428.8 hPa Calm     48 % 0 mm 585.0 W/m2 CLR
10:30 -2 °C -8.2 °C 34428.8 hPa ESE 12.9 km/h 12.9 km/h 51 % 0 mm 599.0 W/m2 CLR
10:35 -1.8 °C -8 °C 34428.8 hPa Calm     51 % 0 mm 613.0 W/m2 CLR
10:40 -1.8 °C -8 °C 34428.8 hPa Calm     51 % 0 mm 628.0 W/m2 CLR
10:45 -1.7 °C -7.7 °C 34428.8 hPa ENE 9 km/h 9 km/h 52 % 0 mm 638.0 W/m2 CLR
10:46 -1.6 °C -7.8 °C 34428.8 hPa Calm     51 % 0 mm 643.0 W/m2 CLR
10:50 -1.6 °C -7.7 °C 34428.8 hPa NE 15 km/h 15 km/h 51 % 0 mm 652.0 W/m2 CLR
10:55 -1.6 °C -7.7 °C 34428.8 hPa ENE 23.8 km/h 23.8 km/h 51 % 0 mm 664.0 W/m2 CLR
11:00 -1.6 °C -7.8 °C 34428.8 hPa NE 11.9 km/h 11.9 km/h 51 % 0 mm 677.0 W/m2 CLR
11:05 -1.6 °C -7.8 °C 34428.8 hPa ENE 11.9 km/h 11.9 km/h 51 % 0 mm 684.0 W/m2 CLR
11:10 -1.6 °C -8.1 °C 34428.8 hPa Calm     49 % 0 mm 700.0 W/m2 CLR
11:15 -1.4 °C -8 °C 34442.4 hPa Calm     49 % 0 mm 708.0 W/m2 CLR
11:20 -1.3 °C -7.9 °C 34442.4 hPa NE 9 km/h 9 km/h 49 % 0 mm 719.0 W/m2 CLR
11:25 -1.2 °C -8.2 °C 34442.4 hPa NE 9 km/h 9 km/h 47 % 0 mm 728.0 W/m2 CLR
11:30 -1.2 °C -8.2 °C 34442.4 hPa Calm     47 % 0 mm 742.0 W/m2 CLR
11:35 -1.2 °C -7.8 °C 34442.4 hPa NE 15 km/h   49 % 0 mm 749.0 W/m2 CLR
11:40 -1 °C -7.9 °C 34442.4 hPa ENE 11.9 km/h 11.9 km/h 47 % 0 mm 759.0 W/m2 CLR
11:45 -0.8 °C -8 °C 34442.4 hPa Calm     46 % 0 mm 768.0 W/m2 CLR
11:50 -0.7 °C -7.9 °C 34442.4 hPa Calm     46 % 0 mm 782.0 W/m2 CLR
11:55 -0.7 °C -7.8 °C 34442.4 hPa East 10.3 km/h 10.3 km/h 46 % 0 mm 789.0 W/m2 CLR
12:00 -0.7 °C -8.1 °C 34428.8 hPa ENE 9 km/h 9 km/h 45 % 0 mm 802.0 W/m2 CLR
12:05 -0.7 °C -7.8 °C 34428.8 hPa Calm     46 % 0 mm 807.0 W/m2 CLR
12:10 -0.5 °C -7.9 °C 34428.8 hPa NNE 12.9 km/h 12.9 km/h 45 % 0 mm 814.0 W/m2 CLR
12:15 -0.4 °C -7.8 °C 34428.8 hPa NNE 20.9 km/h 20.9 km/h 45 % 0 mm 828.0 W/m2 CLR
12:20 -0.4 °C -7.8 °C 34428.8 hPa East 9 km/h 9 km/h 45 % 0 mm 831.0 W/m2 CLR
12:25 -0.6 °C -7.9 °C 34428.8 hPa Calm     45 % 0 mm 840.0 W/m2 CLR
12:30 -0.5 °C -7.9 °C 34428.8 hPa ENE 9 km/h 9 km/h 45 % 0 mm 844.0 W/m2 CLR
12:35 -0.5 °C -7.9 °C 34428.8 hPa ENE 15 km/h 15 km/h 45 % 0 mm 847.0 W/m2 CLR
12:40 -0.6 °C -7.9 °C 34428.8 hPa NE 6 km/h 6.4 km/h 45 % 0 mm 854.0 W/m2 CLR
12:41 -0.6 °C -8 °C 34428.8 hPa ENE 15.6 km/h 15.6 km/h 45 % 0 mm 854.0 W/m2 CLR
12:46 -0.5 °C -7.9 °C 34428.8 hPa NNE 9 km/h   45 % 0 mm 861.0 W/m2 CLR
12:51 -0.6 °C -8 °C 34428.8 hPa NE 17.9 km/h 17.9 km/h 45 % 0 mm 867.0 W/m2 CLR
12:56 -0.5 °C -7.9 °C 34428.8 hPa ENE 15 km/h 15 km/h 45 % 0 mm 868.0 W/m2 CLR
13:01 -0.4 °C -8 °C 34428.8 hPa East 6 km/h 6 km/h 44 % 0 mm 877.0 W/m2 CLR
13:06 -0.3 °C -8.1 °C 34428.8 hPa East 15.6 km/h 15.6 km/h 43 % 0 mm 881.0 W/m2 CLR
13:11 -0.2 °C -8.1 °C 34418.7 hPa Calm     43 % 0 mm 888.0 W/m2 CLR
13:16 -0.1 °C -7.9 °C 34418.7 hPa NE 32.8 km/h 32.8 km/h 43 % 0 mm 889.0 W/m2 CLR
13:21 -0.1 °C -8.2 °C 34418.7 hPa Calm     42 % 0 mm 895.0 W/m2 CLR
13:26 0 °C -8.1 °C 34418.7 hPa ENE 6 km/h 6 km/h 42 % 0 mm 888.0 W/m2 CLR
13:31 0.1 °C -7.9 °C 34418.7 hPa ENE 11.9 km/h 11.9 km/h 42 % 0 mm 935.0 W/m2 CLR
13:36 0.1 °C -8.2 °C 34418.7 hPa Calm     41 % 0 mm 937.0 W/m2 CLR
13:41 0.1 °C -8.2 °C 34418.7 hPa ENE 23.8 km/h 23.8 km/h 41 % 0 mm 849.0 W/m2 CLR
13:46 0.2 °C -8.1 °C 34418.7 hPa ENE 23.8 km/h 23.8 km/h 41 % 0 mm 918.0 W/m2 CLR
13:51 0.2 °C -8.3 °C 34418.7 hPa ENE 15 km/h 15 km/h 40 % 0 mm 911.0 W/m2 CLR
13:56 0.2 °C -8.3 °C 34418.7 hPa ENE 3.1 km/h   40 % 0 mm 911.0 W/m2 CLR
14:01 0.2 °C -8.5 °C 34418.7 hPa East 3.1 km/h 3.1 km/h 39 % 0 mm 909.0 W/m2 CLR
14:06 0.3 °C -8.4 °C 34418.7 hPa ENE 20.9 km/h 20.9 km/h 39 % 0 mm 907.0 W/m2 CLR
14:11 0.4 °C -8.4 °C 34405.1 hPa ENE 15 km/h 15 km/h 39 % 0 mm 911.0 W/m2 CLR
14:16 0.4 °C -8.4 °C 34405.1 hPa NE 9 km/h 9 km/h 39 % 0 mm 916.0 W/m2 CLR
14:21 0.5 °C -8.2 °C 34405.1 hPa NE 11.9 km/h 11.9 km/h 39 % 0 mm 919.0 W/m2 CLR
14:26 0.7 °C -8.4 °C 34405.1 hPa East 3.1 km/h 3.1 km/h 38 % 0 mm 919.0 W/m2 CLR
14:31 0.8 °C -8.5 °C 34405.1 hPa Calm     37 % 0 mm 923.0 W/m2 CLR
14:36 1 °C -8.6 °C 34395 hPa Calm     36 % 0 mm 942.0 W/m2 CLR
14:41 0.9 °C -8.6 °C 34395 hPa ENE 9 km/h 9 km/h 36 % 0 mm 905.0 W/m2 CLR
14:46 1 °C -8.6 °C 34395 hPa East 17.9 km/h 17.9 km/h 36 % 0 mm 949.0 W/m2 CLR
14:51 0.9 °C -8.8 °C 34395 hPa NE 11.9 km/h 11.9 km/h 35 % 0 mm 928.0 W/m2 CLR
14:56 0.9 °C -8.7 °C 34384.8 hPa Calm     36 % 0 mm 911.0 W/m2 CLR
15:01 1.1 °C -8.5 °C 34384.8 hPa ESE 9 km/h 9 km/h 36 % 0 mm 904.0 W/m2 CLR
15:06 1.1 °C -8.7 °C 34384.8 hPa East 11.9 km/h 11.9 km/h 35 % 0 mm 888.0 W/m2 CLR
15:11 0.9 °C -8.8 °C 34371.3 hPa ESE 17.9 km/h 17.9 km/h 35 % 0 mm 893.0 W/m2 CLR
15:16 0.9 °C -8.8 °C 34371.3 hPa Calm     35 % 0 mm 884.0 W/m2 CLR
15:21 0.9 °C -8.6 °C 34371.3 hPa WSW 9 km/h   36 % 0 mm 877.0 W/m2 CLR
15:26 1.2 °C -8.8 °C 34361.1 hPa ENE 23.3 km/h 23.3 km/h 34 % 0 mm 870.0 W/m2 CLR
15:31 1.4 °C -8.7 °C 34361.1 hPa NE 11.9 km/h   34 % 0 mm 867.0 W/m2 CLR
15:36 1.7 °C -8.7 °C 34361.1 hPa NE 15 km/h 15 km/h 33 % 0 mm 853.0 W/m2 CLR
15:42 1.7 °C -8.7 °C 34361.1 hPa ENE 9 km/h 11.1 km/h 33 % 0 mm 842.0 W/m2 CLR
15:47 1.6 °C -9.1 °C 34347.6 hPa WSW 9 km/h 9 km/h 32 % 0 mm 849.0 W/m2 CLR
15:52 1.6 °C -8.7 °C 34347.6 hPa Calm   0.5 km/h 33 % 0 mm 860.0 W/m2 CLR
15:57 1.6 °C -9.1 °C 34347.6 hPa NE 9 km/h 9 km/h 32 % 0 mm 875.0 W/m2 CLR
16:02 1.6 °C -9.1 °C 34347.6 hPa ENE 12.9 km/h 12.9 km/h 32 % 0 mm 874.0 W/m2 CLR
16:07 1.6 °C -9.1 °C 34347.6 hPa ENE 29.8 km/h 29.8 km/h 32 % 0 mm 856.0 W/m2 CLR
16:12 1.4 °C -8.9 °C 34337.4 hPa ESE 17.9 km/h 17.9 km/h 33 % 0 mm 288.0 W/m2 CLR
16:17 1.3 °C -9.2 °C 34337.4 hPa NNE 20.9 km/h 20.9 km/h 32 % 0 mm 838.0 W/m2 CLR
16:22 1.2 °C -9.3 °C 34337.4 hPa Calm     32 % 0 mm 234.0 W/m2 CLR
16:27 1.2 °C -9.1 °C 34327.3 hPa South 11.9 km/h 11.9 km/h 33 % 0 mm 898.0 W/m2 CLR
16:32 1.4 °C -9.2 °C 34327.3 hPa South 20.9 km/h 20.9 km/h 32 % 0 mm 893.0 W/m2 CLR
16:37 1.6 °C -9 °C 34327.3 hPa South 15.6 km/h 15.6 km/h 32 % 0 mm 765.0 W/m2 CLR
16:42 1.8 °C -8.3 °C 34337.4 hPa WNW 29.8 km/h 29.8 km/h 34 % 0 mm 773.0 W/m2 CLR
16:47 1.4 °C -8.2 °C 34327.3 hPa ESE 29.8 km/h 29.8 km/h 36 % 0 mm 258.0 W/m2 CLR
16:52 1.2 °C -7.9 °C 34327.3 hPa SSE 23.8 km/h 23.8 km/h 38 % 0 mm 422.0 W/m2 CLR
16:57 1.1 °C -8 °C 34327.3 hPa SSE 15.6 km/h 15.6 km/h 38 % 0 mm 422.0 W/m2 CLR
17:02 1 °C -8 °C 34327.3 hPa SSE 15.6 km/h 15.6 km/h 38 % 0 mm 334.0 W/m2 CLR
17:07 1.1 °C -8 °C 34327.3 hPa Calm     38 % 0 mm 246.0 W/m2 CLR
17:12 1 °C -8 °C 34327.3 hPa Calm     38 % 0 mm 241.0 W/m2 CLR
17:17 0.9 °C -7.9 °C 34337.4 hPa SSW 20.9 km/h 20.9 km/h 39 % 0 mm 221.0 W/m2 CLR
17:22 0.8 °C -7.7 °C 34337.4 hPa South 26.9 km/h 26.9 km/h 40 % 0 mm 221.0 W/m2 CLR
17:27 0.7 °C -7.9 °C 34337.4 hPa SE 23.8 km/h 23.8 km/h 40 % 0 mm 239.0 W/m2 CLR
17:32 0.6 °C -7.8 °C 34337.4 hPa SSE 31.1 km/h 31.1 km/h 41 % 0 mm 244.0 W/m2 CLR
17:37 0.4 °C -7.7 °C 34347.6 hPa SSE 32.8 km/h 32.8 km/h 42 % 0 mm 246.0 W/m2 CLR
17:42 0.3 °C -7.8 °C 34347.6 hPa South 32.8 km/h 32.8 km/h 42 % 0 mm 230.0 W/m2 CLR
17:47 0.2 °C -7.7 °C 34347.6 hPa SSE 44.7 km/h 44.7 km/h 43 % 0 mm 223.0 W/m2 CLR
17:52 0.1 °C -7.8 °C 34337.4 hPa SSE 44.7 km/h 44.7 km/h 43 % 0 mm 202.0 W/m2 CLR
17:57 -0.1 °C -7.9 °C 34337.4 hPa SSE 32.8 km/h 32.8 km/h 43 % 0 mm 188.0 W/m2 CLR
18:02 -0.2 °C -8 °C 34337.4 hPa South 23.8 km/h 23.8 km/h 43 % 0 mm 183.0 W/m2 CLR
18:07 -0.2 °C -8 °C 34337.4 hPa South 23.8 km/h 23.8 km/h 43 % 0 mm 186.0 W/m2 CLR
18:12 -0.3 °C -7.9 °C 34337.4 hPa South 35.7 km/h 35.7 km/h 44 % 0 mm 197.0 W/m2 CLR
18:17 -0.4 °C -8.1 °C 34337.4 hPa South 38.8 km/h 38.8 km/h 44 % 0 mm 214.0 W/m2 CLR
18:22 -0.4 °C -8.9 °C 34347.6 hPa South 44.7 km/h 44.7 km/h 40 % 0 mm 230.0 W/m2 CLR
18:27 -0.5 °C -9.2 °C 34347.6 hPa South 56.6 km/h 56.6 km/h 39 % 0 mm 236.0 W/m2 CLR
18:32 -0.5 °C -8.9 °C 34347.6 hPa South 35.7 km/h 35.7 km/h 40 % 0 mm 199.0 W/m2 CLR
18:37 -0.4 °C -8.7 °C 34347.6 hPa South 44.7 km/h 44.7 km/h 41 % 0 mm 220.0 W/m2 CLR
18:42 -0.4 °C -8.6 °C 34347.6 hPa SW 29.8 km/h 29.8 km/h 41 % 0 mm 229.0 W/m2 CLR
18:47 -0.4 °C -8.7 °C 34347.6 hPa SSW 35.7 km/h 35.7 km/h 41 % 0 mm 214.0 W/m2 CLR
18:52 -0.4 °C -8.4 °C 34347.6 hPa West 29.8 km/h 29.8 km/h 42 % 0 mm 199.0 W/m2 CLR
18:57 -0.4 °C -8.4 °C 34347.6 hPa SSW 23.8 km/h 23.8 km/h 42 % 0 mm 183.0 W/m2 CLR
19:02 -0.4 °C -8.7 °C 34347.6 hPa WSW 26.9 km/h 26.9 km/h 41 % 0 mm 172.0 W/m2 CLR
19:07 -0.5 °C -8.7 °C 34347.6 hPa SW 35.7 km/h 35.7 km/h 41 % 0 mm 163.0 W/m2 CLR
19:12 -0.7 °C -8.7 °C 34347.6 hPa WSW 32.8 km/h 32.8 km/h 42 % 0 mm 155.0 W/m2 CLR
19:17 -0.8 °C -8.8 °C 34347.6 hPa WSW 20.9 km/h 20.9 km/h 42 % 0 mm 146.0 W/m2 CLR
19:22 -0.9 °C -8.9 °C 34347.6 hPa SW 29.8 km/h 29.8 km/h 42 % 0 mm 141.0 W/m2 CLR
19:27 -0.9 °C -8.9 °C 34347.6 hPa SSW 17.9 km/h 17.9 km/h 42 % 0 mm 134.0 W/m2 CLR
19:32 -1 °C -8.9 °C 34347.6 hPa SW 20.9 km/h 20.9 km/h 42 % 0 mm 128.0 W/m2 CLR
19:33 -1 °C -8.9 °C 34347.6 hPa SW 20.9 km/h 20.9 km/h 42 % 0 mm 128.0 W/m2 CLR
19:38 -1.1 °C -9.2 °C 34361.1 hPa WSW 26.9 km/h 26.9 km/h 41 % 0 mm 127.0 W/m2 CLR
19:43 -1 °C -9.2 °C 34361.1 hPa WSW 32.8 km/h 32.8 km/h 41 % 0 mm 128.0 W/m2 CLR
19:48 -1.1 °C -9.4 °C 34361.1 hPa West 29.8 km/h 29.8 km/h 40 % 0 mm 109.0 W/m2 CLR
19:53 -1.1 °C -9.5 °C 34361.1 hPa WSW 41.7 km/h 41.7 km/h 40 % 0 mm 104.0 W/m2 CLR
19:58 -1.2 °C -9.8 °C 34361.1 hPa WSW 38.8 km/h 38.8 km/h 39 % 0 mm 102.0 W/m2 CLR
20:03 -1.2 °C -10.3 °C 34361.1 hPa SW 32.8 km/h 32.8 km/h 37 % 0 mm 104.0 W/m2 CLR
20:08 -1.3 °C -10.3 °C 34361.1 hPa SSW 32.8 km/h 32.8 km/h 37 % 0 mm 111.0 W/m2 CLR
20:13 -1.3 °C -10.1 °C 34361.1 hPa SSW 23.8 km/h 23.8 km/h 38 % 0 mm 116.0 W/m2 CLR
20:18 -1.3 °C -10.1 °C 34361.1 hPa SSW 29.8 km/h 29.8 km/h 38 % 0 mm 132.0 W/m2 CLR
20:23 -1.3 °C -10.1 °C 34361.1 hPa SW 32.8 km/h 32.8 km/h 38 % 0 mm 123.0 W/m2 CLR
20:28 -1.3 °C -10.2 °C 34361.1 hPa South 32.8 km/h 32.8 km/h 38 % 0 mm 84.0 W/m2 CLR
20:33 -1.4 °C -9.9 °C 34361.1 hPa SSW 29.8 km/h 29.8 km/h 39 % 0 mm 113.0 W/m2 CLR
20:38 -1.4 °C -9.9 °C 34361.1 hPa SSW 15 km/h 15 km/h 39 % 0 mm 100.0 W/m2 CLR
20:43 -1.4 °C -10 °C 34361.1 hPa SSW 17.9 km/h 17.9 km/h 39 % 0 mm 51.0 W/m2 SCT
20:48 -1.5 °C -10.1 °C 34361.1 hPa SSW 15 km/h 15 km/h 39 % 0 mm 39.0 W/m2 BKN
20:53 -1.6 °C -10.1 °C 34361.1 hPa Calm     39 % 0 mm 32.0 W/m2 BKN
20:58 -1.6 °C -9.9 °C 34361.1 hPa Calm     40 % 0 mm 28.0 W/m2 BKN
21:03 -1.8 °C -9.7 °C 34361.1 hPa ESE 20.9 km/h 20.9 km/h 42 % 0 mm 25.0 W/m2 BKN
21:08 -1.9 °C -9.8 °C 34361.1 hPa ESE 15 km/h 15 km/h 42 % 0 mm 19.0 W/m2 BKN
21:13 -2.1 °C -9.7 °C 34361.1 hPa Calm     43 % 0 mm 14.0 W/m2 BKN
21:18 -2.1 °C -9.8 °C 34361.1 hPa Calm     43 % 0 mm 9.0 W/m2 BKN
21:23 -2.2 °C -9.8 °C 34361.1 hPa Calm     43 % 0 mm 7.0 W/m2 BKN
21:28 -2.2 °C -9.8 °C 34361.1 hPa Calm     43 % 0 mm 5.0 W/m2 OVC
21:33 -2.2 °C -9.8 °C 34361.1 hPa Calm     43 % 0 mm 0.0 W/m2 OVC
21:38 -2.2 °C -10.1 °C 34361.1 hPa Calm     42 % 0 mm 0.0 W/m2 OVC
21:43 -2.2 °C -10.1 °C 34361.1 hPa Calm     42 % 0 mm 0.0 W/m2 OVC
21:48 -2.3 °C -10.1 °C 34361.1 hPa Calm     42 % 0 mm 0.0 W/m2 CLR
21:53 -2.4 °C -10 °C 34361.1 hPa Calm     43 % 0 mm 0.0 W/m2 CLR
21:58 -2.6 °C -10.2 °C 34371.3 hPa WSW 11.9 km/h 11.9 km/h 43 % 0 mm 0.0 W/m2 CLR
22:03 -2.7 °C -10.1 °C 34371.3 hPa WSW 11.9 km/h 11.9 km/h 44 % 0 mm 0.0 W/m2 CLR
22:08 -2.8 °C -10.2 °C 34371.3 hPa Calm     44 % 0 mm 0.0 W/m2 CLR
22:13 -2.8 °C -10.2 °C 34371.3 hPa Calm     44 % 0 mm 0.0 W/m2 CLR
22:18 -2.9 °C -10.1 °C 34384.8 hPa Calm     45 % 0 mm 0.0 W/m2 CLR
22:23 -2.9 °C -10.2 °C 34384.8 hPa Calm     45 % 0 mm 0.0 W/m2 CLR
22:28 -3 °C -9.9 °C 34384.8 hPa Calm     46 % 0 mm 0.0 W/m2 CLR
22:33 -3.2 °C -9.9 °C 34384.8 hPa Calm     47 % 0 mm 0.0 W/m2 CLR
22:38 -3.3 °C -9.9 °C 34384.8 hPa Calm     48 % 0 mm 0.0 W/m2 CLR
22:43 -3.4 °C -9.8 °C 34395 hPa Calm     49 % 0 mm 0.0 W/m2 CLR
22:48 -3.5 °C -9.6 °C 34395 hPa Calm     51 % 0 mm 0.0 W/m2 CLR
22:53 -3.6 °C -9.5 °C 34395 hPa Calm     52 % 0 mm 0.0 W/m2 CLR
22:58 -3.6 °C -9.5 °C 34395 hPa Calm     52 % 0 mm 0.0 W/m2 CLR
23:03 -3.6 °C -9.5 °C 34395 hPa Calm     52 % 0 mm 0.0 W/m2 CLR
23:04 -3.6 °C -9.5 °C 34395 hPa Calm     52 % 0 mm 0.0 W/m2 CLR
23:09 -3.7 °C -9.1 °C 34405.1 hPa Calm     55 % 0 mm 0.0 W/m2 CLR
23:14 -3.7 °C -8.7 °C 34405.1 hPa Calm     57 % 0 mm 0.0 W/m2 CLR
23:19 -3.7 °C -8.8 °C 34405.1 hPa Calm     57 % 0 mm 0.0 W/m2 CLR
23:24 -3.7 °C -8.8 °C 34405.1 hPa Calm     57 % 0 mm 0.0 W/m2 CLR
23:29 -3.8 °C -8.8 °C 34405.1 hPa Calm     57 % 0 mm 0.0 W/m2 CLR
23:34 -3.8 °C -8.7 °C 34405.1 hPa Calm     58 % 0 mm 0.0 W/m2 CLR
23:39 -3.8 °C -8.8 °C 34405.1 hPa Calm     58 % 0 mm 0.0 W/m2 CLR
23:44 -3.9 °C -8.9 °C 34405.1 hPa Calm     57 % 0 mm 0.0 W/m2 CLR
23:49 -3.9 °C -9.1 °C 34395 hPa Calm     56 % 0 mm 0.0 W/m2 CLR
23:54 -3.9 °C -9.1 °C 34395 hPa Calm     56 % 0 mm 0.0 W/m2 CLR
23:59 -3.9 °C -9.3 °C 34395 hPa Calm     55 % 0 mm 0.0 W/m2 CLR
Lo Temps de Massalio
Compliments of Weather Underground - 1.25 mb